This is the latest recevied weather packets stored in our database for station/object DG1GMY-13. If no packets are shown the sender has not sent any weather packets the latest 10 day(s).
| Time | Temp. | Humidity | Pressure | Rain* | Wind** | Luminosity | Snow |
|---|---|---|---|---|---|---|---|
| 1788020907 | 25° C | 44% | 1014.9 hPa | - | - | - | - |
| 1788019101 | 25.56° C | 42% | 1015.1 hPa | - | - | - | - |
| 1788017295 | 25.56° C | 42% | 1015.1 hPa | - | - | - | - |
| 1788015489 | 26.11° C | 43% | 1015.4 hPa | - | - | - | - |
| 1788013683 | 26.11° C | 42% | 1015.6 hPa | - | - | - | - |
| 1788011877 | 24.44° C | 47% | 1015.9 hPa | - | - | - | - |
| 1788010071 | 25.56° C | 45% | 1015.9 hPa | - | - | - | - |
| 1788008265 | 26.11° C | 45% | 1016 hPa | - | - | - | - |
| 1788006459 | 25° C | 47% | 1016.2 hPa | - | - | - | - |
| 1788004653 | 26.11° C | 42% | 1016.2 hPa | - | - | - | - |
| 1788002848 | 26.11° C | 47% | 1016.4 hPa | - | - | - | - |
| 1788001042 | 25.56° C | 47% | 1016.7 hPa | - | - | - | - |
| 1787999236 | 25.56° C | 49% | 1016.8 hPa | - | - | - | - |
| 1787997430 | 23.33° C | 53% | 1017 hPa | - | - | - | - |
| 1787995624 | 23.89° C | 52% | 1017.3 hPa | - | - | - | - |
| 1787993818 | 22.78° C | 57% | 1017.5 hPa | - | - | - | - |
| 1787992012 | 22.22° C | 61% | 1017.4 hPa | - | - | - | - |
| 1787990206 | 21.11° C | 65% | 1017.6 hPa | - | - | - | - |
| 1787988400 | 20.56° C | 68% | 1017.6 hPa | - | - | - | - |
| 1787986594 | 20° C | 67% | 1017.7 hPa | - | - | - | - |
| 1787984788 | 19.44° C | 71% | 1017.6 hPa | - | - | - | - |
| 1787982982 | 18.33° C | 73% | 1017.6 hPa | - | - | - | - |
| 1787981176 | 18.89° C | 70% | 1017.4 hPa | - | - | - | - |
| 1787979370 | 18.89° C | 69% | 1017.4 hPa | - | - | - | - |
| 1787977564 | 18.33° C | 72% | 1017.5 hPa | - | - | - | - |
* Rain since midnight (hover to see other rain measurements)
** Current wind speed in m/s (hover to see current wind gust speed)